sensor_id;sensor_type;location;lat;lon;timestamp;temperature;humidity
28247;DHT22;73163;53.178;22.058;2023-11-21T00:00:10;-0.40;99.90
28247;DHT22;73163;53.178;22.058;2023-11-21T00:03:00;-0.40;99.90
28247;DHT22;73163;53.178;22.058;2023-11-21T00:05:28;-0.40;99.90
28247;DHT22;73163;53.178;22.058;2023-11-21T00:08:02;-0.40;99.90
28247;DHT22;73163;53.178;22.058;2023-11-21T00:10:29;-0.40;99.90
28247;DHT22;73163;53.178;22.058;2023-11-21T00:12:58;-0.40;99.90
28247;DHT22;73163;53.178;22.058;2023-11-21T00:15:25;-0.40;99.90
28247;DHT22;73163;53.178;22.058;2023-11-21T00:17:54;-0.40;99.90
28247;DHT22;73163;53.178;22.058;2023-11-21T00:20:23;-0.40;99.90
28247;DHT22;73163;53.178;22.058;2023-11-21T00:22:52;-0.40;99.90
28247;DHT22;73163;53.178;22.058;2023-11-21T00:25:20;-0.40;99.90
28247;DHT22;73163;53.178;22.058;2023-11-21T00:27:52;-0.40;99.90
28247;DHT22;73163;53.178;22.058;2023-11-21T00:30:23;-0.40;99.90
28247;DHT22;73163;53.178;22.058;2023-11-21T00:32:53;-0.40;99.90
28247;DHT22;73163;53.178;22.058;2023-11-21T00:35:21;-0.40;99.90
28247;DHT22;73163;53.178;22.058;2023-11-21T00:37:50;-0.40;99.90
28247;DHT22;73163;53.178;22.058;2023-11-21T00:40:18;-0.40;99.90
28247;DHT22;73163;53.178;22.058;2023-11-21T00:42:50;-0.40;99.90
28247;DHT22;73163;53.178;22.058;2023-11-21T00:45:17;-0.40;99.90
28247;DHT22;73163;53.178;22.058;2023-11-21T00:47:46;-0.40;99.90
28247;DHT22;73163;53.178;22.058;2023-11-21T00:50:16;-0.40;99.90
28247;DHT22;73163;53.178;22.058;2023-11-21T00:52:44;-0.30;99.90
28247;DHT22;73163;53.178;22.058;2023-11-21T00:55:15;-0.40;99.90
28247;DHT22;73163;53.178;22.058;2023-11-21T00:57:44;-0.40;99.90
28247;DHT22;73163;53.178;22.058;2023-11-21T01:00:12;-0.40;99.90
28247;DHT22;73163;53.178;22.058;2023-11-21T01:02:45;-0.40;99.90
28247;DHT22;73163;53.178;22.058;2023-11-21T01:05:12;-0.40;99.90
28247;DHT22;73163;53.178;22.058;2023-11-21T01:07:41;-0.40;99.90
28247;DHT22;73163;53.178;22.058;2023-11-21T01:10:10;-0.40;99.90
28247;DHT22;73163;53.178;22.058;2023-11-21T01:12:41;-0.40;99.90
28247;DHT22;73163;53.178;22.058;2023-11-21T01:15:11;-0.40;99.90
28247;DHT22;73163;53.178;22.058;2023-11-21T01:17:40;-0.50;99.90
28247;DHT22;73163;53.178;22.058;2023-11-21T01:20:11;-0.40;99.90
28247;DHT22;73163;53.178;22.058;2023-11-21T01:22:40;-0.40;99.90
28247;DHT22;73163;53.178;22.058;2023-11-21T01:25:08;-0.40;99.90
28247;DHT22;73163;53.178;22.058;2023-11-21T01:27:38;-0.40;99.90
28247;DHT22;73163;53.178;22.058;2023-11-21T01:30:09;-0.50;99.90
28247;DHT22;73163;53.178;22.058;2023-11-21T01:32:40;-0.50;99.90
28247;DHT22;73163;53.178;22.058;2023-11-21T01:35:09;-0.50;99.90
28247;DHT22;73163;53.178;22.058;2023-11-21T01:37:38;-0.50;99.90
28247;DHT22;73163;53.178;22.058;2023-11-21T01:40:09;-0.50;99.90
28247;DHT22;73163;53.178;22.058;2023-11-21T01:42:47;-0.50;99.90
28247;DHT22;73163;53.178;22.058;2023-11-21T01:45:16;-0.50;99.90
28247;DHT22;73163;53.178;22.058;2023-11-21T01:47:44;-0.50;99.90
28247;DHT22;73163;53.178;22.058;2023-11-21T01:50:15;-0.50;99.90
28247;DHT22;73163;53.178;22.058;2023-11-21T01:52:49;-0.50;99.90
28247;DHT22;73163;53.178;22.058;2023-11-21T01:55:18;-0.40;99.90
28247;DHT22;73163;53.178;22.058;2023-11-21T01:57:49;-0.60;99.90
28247;DHT22;73163;53.178;22.058;2023-11-21T02:00:17;-0.50;99.90
28247;DHT22;73163;53.178;22.058;2023-11-21T02:02:49;-0.50;99.90
28247;DHT22;73163;53.178;22.058;2023-11-21T02:05:19;-0.50;99.90
28247;DHT22;73163;53.178;22.058;2023-11-21T02:07:48;-0.50;99.90
28247;DHT22;73163;53.178;22.058;2023-11-21T02:10:16;-0.40;99.90
28247;DHT22;73163;53.178;22.058;2023-11-21T02:12:53;-0.50;99.90
28247;DHT22;73163;53.178;22.058;2023-11-21T02:15:21;-0.50;99.90
28247;DHT22;73163;53.178;22.058;2023-11-21T02:17:51;-0.50;99.90
28247;DHT22;73163;53.178;22.058;2023-11-21T02:20:21;-0.50;99.90
28247;DHT22;73163;53.178;22.058;2023-11-21T02:22:56;-0.40;99.90
28247;DHT22;73163;53.178;22.058;2023-11-21T02:25:28;-0.40;99.90
28247;DHT22;73163;53.178;22.058;2023-11-21T02:27:58;-0.40;99.90
28247;DHT22;73163;53.178;22.058;2023-11-21T02:30:27;-0.40;99.90
28247;DHT22;73163;53.178;22.058;2023-11-21T02:32:57;-0.40;99.90
28247;DHT22;73163;53.178;22.058;2023-11-21T02:35:26;-0.40;99.90
28247;DHT22;73163;53.178;22.058;2023-11-21T02:37:55;-0.40;99.90
28247;DHT22;73163;53.178;22.058;2023-11-21T02:40:24;-0.30;99.90
28247;DHT22;73163;53.178;22.058;2023-11-21T02:42:54;-0.40;99.90
28247;DHT22;73163;53.178;22.058;2023-11-21T02:45:23;-0.40;99.90
28247;DHT22;73163;53.178;22.058;2023-11-21T02:47:52;-0.40;99.90
28247;DHT22;73163;53.178;22.058;2023-11-21T02:50:24;-0.40;99.90
28247;DHT22;73163;53.178;22.058;2023-11-21T02:52:52;-0.40;99.90
28247;DHT22;73163;53.178;22.058;2023-11-21T02:55:20;-0.40;99.90
28247;DHT22;73163;53.178;22.058;2023-11-21T02:57:49;-0.40;99.90
28247;DHT22;73163;53.178;22.058;2023-11-21T03:00:17;-0.40;99.90
28247;DHT22;73163;53.178;22.058;2023-11-21T03:02:51;-0.40;99.90
28247;DHT22;73163;53.178;22.058;2023-11-21T03:05:19;-0.40;99.90
28247;DHT22;73163;53.178;22.058;2023-11-21T03:07:47;-0.40;99.90
28247;DHT22;73163;53.178;22.058;2023-11-21T03:10:15;-0.40;99.90
28247;DHT22;73163;53.178;22.058;2023-11-21T03:12:43;-0.40;99.90
28247;DHT22;73163;53.178;22.058;2023-11-21T03:15:12;-0.30;99.90
28247;DHT22;73163;53.178;22.058;2023-11-21T03:17:40;-0.40;99.90
28247;DHT22;73163;53.178;22.058;2023-11-21T03:20:08;-0.40;99.90
28247;DHT22;73163;53.178;22.058;2023-11-21T03:22:38;-0.30;99.90
28247;DHT22;73163;53.178;22.058;2023-11-21T03:25:07;-0.30;99.90
28247;DHT22;73163;53.178;22.058;2023-11-21T03:27:40;-0.30;99.90
28247;DHT22;73163;53.178;22.058;2023-11-21T03:30:09;-0.30;99.90
28247;DHT22;73163;53.178;22.058;2023-11-21T03:32:37;-0.20;99.90
28247;DHT22;73163;53.178;22.058;2023-11-21T03:35:05;-0.20;99.90
28247;DHT22;73163;53.178;22.058;2023-11-21T03:37:34;-0.20;99.90
28247;DHT22;73163;53.178;22.058;2023-11-21T03:40:03;-0.20;99.90
28247;DHT22;73163;53.178;22.058;2023-11-21T03:42:31;-0.30;99.90
28247;DHT22;73163;53.178;22.058;2023-11-21T03:44:59;-0.20;99.90
28247;DHT22;73163;53.178;22.058;2023-11-21T03:47:29;-0.30;99.90
28247;DHT22;73163;53.178;22.058;2023-11-21T03:49:56;-0.30;99.90
28247;DHT22;73163;53.178;22.058;2023-11-21T03:52:25;-0.20;99.90
28247;DHT22;73163;53.178;22.058;2023-11-21T03:54:53;-0.20;99.90
28247;DHT22;73163;53.178;22.058;2023-11-21T03:57:21;-0.20;99.90
28247;DHT22;73163;53.178;22.058;2023-11-21T03:59:49;-0.20;99.90
28247;DHT22;73163;53.178;22.058;2023-11-21T04:02:17;-0.20;99.90
28247;DHT22;73163;53.178;22.058;2023-11-21T04:04:45;-0.20;99.90
28247;DHT22;73163;53.178;22.058;2023-11-21T04:07:18;-0.20;99.90
28247;DHT22;73163;53.178;22.058;2023-11-21T04:09:45;-0.20;99.90
28247;DHT22;73163;53.178;22.058;2023-11-21T04:12:13;-0.20;99.90
28247;DHT22;73163;53.178;22.058;2023-11-21T04:14:44;-0.20;99.90
28247;DHT22;73163;53.178;22.058;2023-11-21T04:17:13;-0.20;99.90
28247;DHT22;73163;53.178;22.058;2023-11-21T04:19:43;-0.10;99.90
28247;DHT22;73163;53.178;22.058;2023-11-21T04:22:12;-0.20;99.90
28247;DHT22;73163;53.178;22.058;2023-11-21T04:24:40;-0.20;99.90
28247;DHT22;73163;53.178;22.058;2023-11-21T04:27:11;-0.20;99.90
28247;DHT22;73163;53.178;22.058;2023-11-21T04:29:40;-0.20;99.90
28247;DHT22;73163;53.178;22.058;2023-11-21T04:32:09;-0.30;99.90
28247;DHT22;73163;53.178;22.058;2023-11-21T04:34:40;-0.30;99.90
28247;DHT22;73163;53.178;22.058;2023-11-21T04:37:08;-0.30;99.90
28247;DHT22;73163;53.178;22.058;2023-11-21T04:39:38;-0.30;99.90
28247;DHT22;73163;53.178;22.058;2023-11-21T04:42:06;-0.30;99.90
28247;DHT22;73163;53.178;22.058;2023-11-21T04:44:36;-0.30;99.90
28247;DHT22;73163;53.178;22.058;2023-11-21T04:47:05;-0.30;99.90
28247;DHT22;73163;53.178;22.058;2023-11-21T04:49:33;-0.30;99.90
28247;DHT22;73163;53.178;22.058;2023-11-21T04:52:01;-0.30;99.90
28247;DHT22;73163;53.178;22.058;2023-11-21T04:54:31;-0.30;99.90
28247;DHT22;73163;53.178;22.058;2023-11-21T04:56:59;-0.40;99.90
28247;DHT22;73163;53.178;22.058;2023-11-21T04:59:28;-0.40;99.90
28247;DHT22;73163;53.178;22.058;2023-11-21T05:01:56;-0.30;99.90
28247;DHT22;73163;53.178;22.058;2023-11-21T05:04:24;-0.40;99.90
28247;DHT22;73163;53.178;22.058;2023-11-21T05:06:52;-0.40;99.90
28247;DHT22;73163;53.178;22.058;2023-11-21T05:09:22;-0.30;99.90
28247;DHT22;73163;53.178;22.058;2023-11-21T05:11:54;-0.30;99.90
28247;DHT22;73163;53.178;22.058;2023-11-21T05:14:22;-0.30;99.90
28247;DHT22;73163;53.178;22.058;2023-11-21T05:16:53;-0.30;99.90
28247;DHT22;73163;53.178;22.058;2023-11-21T05:19:21;-0.40;99.90
28247;DHT22;73163;53.178;22.058;2023-11-21T05:21:49;-0.40;99.90
28247;DHT22;73163;53.178;22.058;2023-11-21T05:24:18;-0.40;99.90
28247;DHT22;73163;53.178;22.058;2023-11-21T05:26:46;-0.40;99.90
28247;DHT22;73163;53.178;22.058;2023-11-21T05:29:14;-0.40;99.90
28247;DHT22;73163;53.178;22.058;2023-11-21T05:31:47;-0.40;99.90
28247;DHT22;73163;53.178;22.058;2023-11-21T05:34:15;-0.40;99.90
28247;DHT22;73163;53.178;22.058;2023-11-21T05:36:43;-0.40;99.90
28247;DHT22;73163;53.178;22.058;2023-11-21T05:39:16;-0.40;99.90
28247;DHT22;73163;53.178;22.058;2023-11-21T05:41:49;-0.40;99.90
28247;DHT22;73163;53.178;22.058;2023-11-21T05:44:19;-0.40;99.90
28247;DHT22;73163;53.178;22.058;2023-11-21T05:46:50;-0.40;99.90
28247;DHT22;73163;53.178;22.058;2023-11-21T05:49:18;-0.40;99.90
28247;DHT22;73163;53.178;22.058;2023-11-21T05:51:49;-0.40;99.90
28247;DHT22;73163;53.178;22.058;2023-11-21T05:54:22;-0.40;99.90
28247;DHT22;73163;53.178;22.058;2023-11-21T05:56:52;-0.40;99.90
28247;DHT22;73163;53.178;22.058;2023-11-21T05:59:20;-0.40;99.90
28247;DHT22;73163;53.178;22.058;2023-11-21T06:01:48;-0.40;99.90
28247;DHT22;73163;53.178;22.058;2023-11-21T06:04:15;-0.40;99.90
28247;DHT22;73163;53.178;22.058;2023-11-21T06:06:49;-0.40;99.90
28247;DHT22;73163;53.178;22.058;2023-11-21T06:09:17;-0.40;99.90
28247;DHT22;73163;53.178;22.058;2023-11-21T06:11:45;-0.40;99.90
28247;DHT22;73163;53.178;22.058;2023-11-21T06:14:13;-0.40;99.70
28247;DHT22;73163;53.178;22.058;2023-11-21T06:16:41;-0.40;99.50
28247;DHT22;73163;53.178;22.058;2023-11-21T06:19:09;-0.40;99.80
28247;DHT22;73163;53.178;22.058;2023-11-21T06:21:38;-0.40;99.60
28247;DHT22;73163;53.178;22.058;2023-11-21T06:24:10;-0.40;99.40
28247;DHT22;73163;53.178;22.058;2023-11-21T06:26:40;-0.40;99.00
28247;DHT22;73163;53.178;22.058;2023-11-21T06:29:09;-0.40;99.10
28247;DHT22;73163;53.178;22.058;2023-11-21T06:31:40;-0.40;99.30
28247;DHT22;73163;53.178;22.058;2023-11-21T06:34:12;-0.40;99.10
28247;DHT22;73163;53.178;22.058;2023-11-21T06:36:44;-0.40;99.20
28247;DHT22;73163;53.178;22.058;2023-11-21T06:39:11;-0.40;98.60
28247;DHT22;73163;53.178;22.058;2023-11-21T06:41:41;-0.40;99.10
28247;DHT22;73163;53.178;22.058;2023-11-21T06:44:12;-0.40;98.80
28247;DHT22;73163;53.178;22.058;2023-11-21T06:46:41;-0.40;99.00
28247;DHT22;73163;53.178;22.058;2023-11-21T06:49:10;-0.30;99.20
28247;DHT22;73163;53.178;22.058;2023-11-21T06:51:39;-0.30;99.30
28247;DHT22;73163;53.178;22.058;2023-11-21T06:54:08;-0.30;99.10
28247;DHT22;73163;53.178;22.058;2023-11-21T06:56:37;-0.20;99.10
28247;DHT22;73163;53.178;22.058;2023-11-21T06:59:09;-0.20;98.90
28247;DHT22;73163;53.178;22.058;2023-11-21T07:01:39;-0.30;98.80
28247;DHT22;73163;53.178;22.058;2023-11-21T07:04:09;-0.20;98.60
28247;DHT22;73163;53.178;22.058;2023-11-21T07:06:38;-0.30;98.70
28247;DHT22;73163;53.178;22.058;2023-11-21T07:09:08;-0.30;98.80
28247;DHT22;73163;53.178;22.058;2023-11-21T07:11:37;-0.30;98.90
28247;DHT22;73163;53.178;22.058;2023-11-21T07:14:08;-0.20;99.20
28247;DHT22;73163;53.178;22.058;2023-11-21T07:16:37;-0.20;99.30
28247;DHT22;73163;53.178;22.058;2023-11-21T07:19:05;-0.30;98.80
28247;DHT22;73163;53.178;22.058;2023-11-21T07:21:36;-0.20;99.20
28247;DHT22;73163;53.178;22.058;2023-11-21T07:24:05;-0.20;99.30
28247;DHT22;73163;53.178;22.058;2023-11-21T07:26:37;-0.20;99.30
28247;DHT22;73163;53.178;22.058;2023-11-21T07:29:06;-0.20;99.20
28247;DHT22;73163;53.178;22.058;2023-11-21T07:31:35;-0.10;99.10
28247;DHT22;73163;53.178;22.058;2023-11-21T07:34:03;-0.10;99.00
28247;DHT22;73163;53.178;22.058;2023-11-21T07:36:34;-0.10;98.70
28247;DHT22;73163;53.178;22.058;2023-11-21T07:39:02;-0.10;99.00
28247;DHT22;73163;53.178;22.058;2023-11-21T07:41:30;0.00;98.70
28247;DHT22;73163;53.178;22.058;2023-11-21T07:43:58;0.00;98.20
28247;DHT22;73163;53.178;22.058;2023-11-21T07:46:28;-0.10;98.30
28247;DHT22;73163;53.178;22.058;2023-11-21T07:48:56;-0.10;98.00
28247;DHT22;73163;53.178;22.058;2023-11-21T07:51:24;-0.10;98.10
28247;DHT22;73163;53.178;22.058;2023-11-21T07:53:52;-0.10;98.40
28247;DHT22;73163;53.178;22.058;2023-11-21T07:56:24;0.00;98.00
28247;DHT22;73163;53.178;22.058;2023-11-21T07:58:55;0.00;97.80
28247;DHT22;73163;53.178;22.058;2023-11-21T08:01:24;0.00;97.70
28247;DHT22;73163;53.178;22.058;2023-11-21T08:03:51;0.00;97.60
28247;DHT22;73163;53.178;22.058;2023-11-21T08:06:22;-0.10;97.30
28247;DHT22;73163;53.178;22.058;2023-11-21T08:08:51;0.00;97.20
28247;DHT22;73163;53.178;22.058;2023-11-21T08:11:25;0.00;97.50
28247;DHT22;73163;53.178;22.058;2023-11-21T08:13:56;0.00;97.30
28247;DHT22;73163;53.178;22.058;2023-11-21T08:16:28;0.00;97.50
28247;DHT22;73163;53.178;22.058;2023-11-21T08:18:55;0.10;97.00
28247;DHT22;73163;53.178;22.058;2023-11-21T08:21:25;0.10;97.00
28247;DHT22;73163;53.178;22.058;2023-11-21T08:23:58;0.10;97.10
28247;DHT22;73163;53.178;22.058;2023-11-21T08:26:28;0.10;96.70
28247;DHT22;73163;53.178;22.058;2023-11-21T08:28:55;0.10;96.80
28247;DHT22;73163;53.178;22.058;2023-11-21T08:31:26;0.10;95.90
28247;DHT22;73163;53.178;22.058;2023-11-21T08:33:55;0.10;96.50
28247;DHT22;73163;53.178;22.058;2023-11-21T08:36:23;0.10;96.60
28247;DHT22;73163;53.178;22.058;2023-11-21T08:38:52;0.10;96.80
28247;DHT22;73163;53.178;22.058;2023-11-21T08:41:22;0.10;96.20
28247;DHT22;73163;53.178;22.058;2023-11-21T08:43:51;0.10;96.40
28247;DHT22;73163;53.178;22.058;2023-11-21T08:46:21;0.10;96.40
28247;DHT22;73163;53.178;22.058;2023-11-21T08:48:50;0.10;96.30
28247;DHT22;73163;53.178;22.058;2023-11-21T08:51:20;0.10;96.30
28247;DHT22;73163;53.178;22.058;2023-11-21T08:53:48;0.20;96.50
28247;DHT22;73163;53.178;22.058;2023-11-21T08:56:16;0.20;96.20
28247;DHT22;73163;53.178;22.058;2023-11-21T08:58:46;0.20;96.50
28247;DHT22;73163;53.178;22.058;2023-11-21T09:01:18;0.20;96.40
28247;DHT22;73163;53.178;22.058;2023-11-21T09:03:47;0.30;96.50
28247;DHT22;73163;53.178;22.058;2023-11-21T09:06:19;0.40;96.70
28247;DHT22;73163;53.178;22.058;2023-11-21T09:08:49;0.40;96.10
28247;DHT22;73163;53.178;22.058;2023-11-21T09:11:17;0.40;95.70
28247;DHT22;73163;53.178;22.058;2023-11-21T09:13:45;0.40;96.10
28247;DHT22;73163;53.178;22.058;2023-11-21T09:16:15;0.40;96.40
28247;DHT22;73163;53.178;22.058;2023-11-21T09:18:45;0.40;96.20
28247;DHT22;73163;53.178;22.058;2023-11-21T09:21:13;0.40;96.20
28247;DHT22;73163;53.178;22.058;2023-11-21T09:23:42;0.40;96.30
28247;DHT22;73163;53.178;22.058;2023-11-21T09:26:11;0.50;96.10
28247;DHT22;73163;53.178;22.058;2023-11-21T09:28:38;0.50;95.70
28247;DHT22;73163;53.178;22.058;2023-11-21T09:31:09;0.50;96.00
28247;DHT22;73163;53.178;22.058;2023-11-21T09:33:37;0.50;95.70
28247;DHT22;73163;53.178;22.058;2023-11-21T09:36:10;0.50;95.40
28247;DHT22;73163;53.178;22.058;2023-11-21T09:38:43;0.50;95.10
28247;DHT22;73163;53.178;22.058;2023-11-21T09:41:32;0.50;95.20
28247;DHT22;73163;53.178;22.058;2023-11-21T09:44:03;0.50;95.40
28247;DHT22;73163;53.178;22.058;2023-11-21T09:46:35;0.50;95.20
28247;DHT22;73163;53.178;22.058;2023-11-21T09:49:09;0.40;95.10
28247;DHT22;73163;53.178;22.058;2023-11-21T09:51:43;0.50;95.60
28247;DHT22;73163;53.178;22.058;2023-11-21T09:54:11;0.40;95.00
28247;DHT22;73163;53.178;22.058;2023-11-21T09:56:40;0.50;95.10
28247;DHT22;73163;53.178;22.058;2023-11-21T09:59:14;0.40;94.60
28247;DHT22;73163;53.178;22.058;2023-11-21T10:01:44;0.40;94.80
28247;DHT22;73163;53.178;22.058;2023-11-21T10:04:17;0.40;95.30
28247;DHT22;73163;53.178;22.058;2023-11-21T10:06:48;0.40;95.40
28247;DHT22;73163;53.178;22.058;2023-11-21T10:09:17;0.40;95.20
28247;DHT22;73163;53.178;22.058;2023-11-21T10:12:15;0.40;94.90
28247;DHT22;73163;53.178;22.058;2023-11-21T10:14:43;0.50;95.20
28247;DHT22;73163;53.178;22.058;2023-11-21T10:17:15;0.40;95.10
28247;DHT22;73163;53.178;22.058;2023-11-21T10:19:52;0.50;95.20
28247;DHT22;73163;53.178;22.058;2023-11-21T10:22:28;0.40;94.80
28247;DHT22;73163;53.178;22.058;2023-11-21T10:24:56;0.50;95.00
28247;DHT22;73163;53.178;22.058;2023-11-21T10:27:27;0.50;94.80
28247;DHT22;73163;53.178;22.058;2023-11-21T10:29:56;0.40;94.80
28247;DHT22;73163;53.178;22.058;2023-11-21T10:32:28;0.40;94.80
28247;DHT22;73163;53.178;22.058;2023-11-21T10:35:00;0.50;95.00
28247;DHT22;73163;53.178;22.058;2023-11-21T10:37:30;0.50;94.70
28247;DHT22;73163;53.178;22.058;2023-11-21T10:39:58;0.50;94.60
28247;DHT22;73163;53.178;22.058;2023-11-21T10:42:27;0.60;94.80
28247;DHT22;73163;53.178;22.058;2023-11-21T10:44:55;0.60;94.70
28247;DHT22;73163;53.178;22.058;2023-11-21T10:47:24;0.60;94.40
28247;DHT22;73163;53.178;22.058;2023-11-21T10:49:51;0.60;94.50
28247;DHT22;73163;53.178;22.058;2023-11-21T10:52:26;0.60;93.90
28247;DHT22;73163;53.178;22.058;2023-11-21T10:54:54;0.60;94.00
28247;DHT22;73163;53.178;22.058;2023-11-21T10:57:23;0.60;93.90
28247;DHT22;73163;53.178;22.058;2023-11-21T10:59:54;0.50;93.90
28247;DHT22;73163;53.178;22.058;2023-11-21T11:02:24;0.60;94.30
28247;DHT22;73163;53.178;22.058;2023-11-21T11:04:55;0.60;94.00
28247;DHT22;73163;53.178;22.058;2023-11-21T11:07:27;0.60;93.40
28247;DHT22;73163;53.178;22.058;2023-11-21T11:09:56;0.60;93.50
28247;DHT22;73163;53.178;22.058;2023-11-21T11:12:28;0.50;93.50
28247;DHT22;73163;53.178;22.058;2023-11-21T11:14:57;0.60;93.70
28247;DHT22;73163;53.178;22.058;2023-11-21T11:17:27;0.60;93.20
28247;DHT22;73163;53.178;22.058;2023-11-21T11:19:55;0.50;92.60
28247;DHT22;73163;53.178;22.058;2023-11-21T11:22:29;0.50;93.20
28247;DHT22;73163;53.178;22.058;2023-11-21T11:28:15;0.40;93.10
28247;DHT22;73163;53.178;22.058;2023-11-21T11:31:00;0.40;92.50
28247;DHT22;73163;53.178;22.058;2023-11-21T11:33:42;0.40;92.90
28247;DHT22;73163;53.178;22.058;2023-11-21T11:36:19;0.50;92.90
28247;DHT22;73163;53.178;22.058;2023-11-21T11:38:55;0.50;93.00
28247;DHT22;73163;53.178;22.058;2023-11-21T11:41:28;0.40;92.50
28247;DHT22;73163;53.178;22.058;2023-11-21T11:44:00;0.40;92.80
28247;DHT22;73163;53.178;22.058;2023-11-21T11:46:44;0.40;92.90
28247;DHT22;73163;53.178;22.058;2023-11-21T11:49:27;0.40;92.20
28247;DHT22;73163;53.178;22.058;2023-11-21T11:55:03;0.30;92.80
28247;DHT22;73163;53.178;22.058;2023-11-21T11:57:32;0.30;92.90
28247;DHT22;73163;53.178;22.058;2023-11-21T12:02:38;0.20;92.60
28247;DHT22;73163;53.178;22.058;2023-11-21T12:05:12;0.20;92.30
28247;DHT22;73163;53.178;22.058;2023-11-21T12:10:24;0.20;92.60
28247;DHT22;73163;53.178;22.058;2023-11-21T12:13:02;0.20;92.70
28247;DHT22;73163;53.178;22.058;2023-11-21T12:15:32;0.20;92.80
28247;DHT22;73163;53.178;22.058;2023-11-21T12:18:04;0.20;92.70
28247;DHT22;73163;53.178;22.058;2023-11-21T12:20:33;0.30;92.90
28247;DHT22;73163;53.178;22.058;2023-11-21T12:23:12;0.30;93.10
28247;DHT22;73163;53.178;22.058;2023-11-21T12:25:43;0.30;93.00
28247;DHT22;73163;53.178;22.058;2023-11-21T12:28:11;0.30;92.90
28247;DHT22;73163;53.178;22.058;2023-11-21T12:30:46;0.40;92.60
28247;DHT22;73163;53.178;22.058;2023-11-21T12:33:14;0.40;92.50
28247;DHT22;73163;53.178;22.058;2023-11-21T12:35:45;0.40;92.50
28247;DHT22;73163;53.178;22.058;2023-11-21T12:38:15;0.30;92.10
28247;DHT22;73163;53.178;22.058;2023-11-21T12:40:46;0.30;92.20
28247;DHT22;73163;53.178;22.058;2023-11-21T12:43:14;0.30;92.50
28247;DHT22;73163;53.178;22.058;2023-11-21T12:45:42;0.30;92.10
28247;DHT22;73163;53.178;22.058;2023-11-21T12:48:11;0.40;92.30
28247;DHT22;73163;53.178;22.058;2023-11-21T12:50:40;0.40;91.80
28247;DHT22;73163;53.178;22.058;2023-11-21T12:53:16;0.30;92.10
28247;DHT22;73163;53.178;22.058;2023-11-21T12:55:47;0.40;92.10
28247;DHT22;73163;53.178;22.058;2023-11-21T12:58:17;0.40;92.20
28247;DHT22;73163;53.178;22.058;2023-11-21T13:00:48;0.50;92.40
28247;DHT22;73163;53.178;22.058;2023-11-21T13:03:17;0.50;92.10
28247;DHT22;73163;53.178;22.058;2023-11-21T13:05:48;0.50;91.70
28247;DHT22;73163;53.178;22.058;2023-11-21T13:08:21;0.50;91.80
28247;DHT22;73163;53.178;22.058;2023-11-21T13:10:55;0.40;91.60
28247;DHT22;73163;53.178;22.058;2023-11-21T13:13:25;0.40;91.90
28247;DHT22;73163;53.178;22.058;2023-11-21T13:16:02;0.40;92.00
28247;DHT22;73163;53.178;22.058;2023-11-21T13:18:33;0.40;91.70
28247;DHT22;73163;53.178;22.058;2023-11-21T13:21:08;0.40;91.60
28247;DHT22;73163;53.178;22.058;2023-11-21T13:23:46;0.40;91.20
28247;DHT22;73163;53.178;22.058;2023-11-21T13:26:16;0.40;91.70
28247;DHT22;73163;53.178;22.058;2023-11-21T13:28:47;0.40;92.10
28247;DHT22;73163;53.178;22.058;2023-11-21T13:31:16;0.40;92.00
28247;DHT22;73163;53.178;22.058;2023-11-21T13:33:56;0.50;92.20
28247;DHT22;73163;53.178;22.058;2023-11-21T13:36:29;0.40;91.50
28247;DHT22;73163;53.178;22.058;2023-11-21T13:39:03;0.40;91.50
28247;DHT22;73163;53.178;22.058;2023-11-21T13:41:46;0.40;92.00
28247;DHT22;73163;53.178;22.058;2023-11-21T13:44:18;0.40;91.90
28247;DHT22;73163;53.178;22.058;2023-11-21T13:47:02;0.40;91.70
28247;DHT22;73163;53.178;22.058;2023-11-21T13:49:30;0.40;91.10
28247;DHT22;73163;53.178;22.058;2023-11-21T13:52:04;0.40;91.20
28247;DHT22;73163;53.178;22.058;2023-11-21T13:54:35;0.40;91.40
28247;DHT22;73163;53.178;22.058;2023-11-21T13:57:03;0.40;91.50
28247;DHT22;73163;53.178;22.058;2023-11-21T13:59:40;0.40;91.50
28247;DHT22;73163;53.178;22.058;2023-11-21T14:02:08;0.40;91.60
28247;DHT22;73163;53.178;22.058;2023-11-21T14:04:45;0.40;91.00
28247;DHT22;73163;53.178;22.058;2023-11-21T14:07:29;0.40;90.50
28247;DHT22;73163;53.178;22.058;2023-11-21T14:10:03;0.30;90.30
28247;DHT22;73163;53.178;22.058;2023-11-21T14:12:33;0.30;89.90
28247;DHT22;73163;53.178;22.058;2023-11-21T14:15:04;0.20;90.10
28247;DHT22;73163;53.178;22.058;2023-11-21T14:17:33;0.30;90.80
28247;DHT22;73163;53.178;22.058;2023-11-21T14:20:06;0.20;89.90
28247;DHT22;73163;53.178;22.058;2023-11-21T14:22:38;0.20;89.50
28247;DHT22;73163;53.178;22.058;2023-11-21T14:25:08;0.20;88.90
28247;DHT22;73163;53.178;22.058;2023-11-21T14:27:39;0.10;86.20
28247;DHT22;73163;53.178;22.058;2023-11-21T14:30:07;0.10;87.80
28247;DHT22;73163;53.178;22.058;2023-11-21T14:32:39;0.10;87.10
28247;DHT22;73163;53.178;22.058;2023-11-21T14:35:07;0.10;88.40
28247;DHT22;73163;53.178;22.058;2023-11-21T14:37:37;0.10;87.10
28247;DHT22;73163;53.178;22.058;2023-11-21T14:40:05;0.10;87.10
28247;DHT22;73163;53.178;22.058;2023-11-21T14:42:37;0.10;87.10
28247;DHT22;73163;53.178;22.058;2023-11-21T14:45:07;0.10;86.80
28247;DHT22;73163;53.178;22.058;2023-11-21T14:47:38;0.00;85.40
28247;DHT22;73163;53.178;22.058;2023-11-21T14:50:14;0.00;86.70
28247;DHT22;73163;53.178;22.058;2023-11-21T14:53:10;0.00;86.80
28247;DHT22;73163;53.178;22.058;2023-11-21T14:55:41;0.00;86.20
28247;DHT22;73163;53.178;22.058;2023-11-21T14:58:21;0.00;86.90
28247;DHT22;73163;53.178;22.058;2023-11-21T15:00:58;-0.10;86.00
28247;DHT22;73163;53.178;22.058;2023-11-21T15:03:32;-0.10;86.50
28247;DHT22;73163;53.178;22.058;2023-11-21T15:06:05;-0.10;86.40
28247;DHT22;73163;53.178;22.058;2023-11-21T15:08:57;-0.10;86.40
28247;DHT22;73163;53.178;22.058;2023-11-21T15:11:31;-0.10;85.90
28247;DHT22;73163;53.178;22.058;2023-11-21T15:14:01;-0.10;86.60
28247;DHT22;73163;53.178;22.058;2023-11-21T15:16:36;-0.10;86.60
28247;DHT22;73163;53.178;22.058;2023-11-21T15:19:09;-0.10;87.60
28247;DHT22;73163;53.178;22.058;2023-11-21T15:21:45;-0.10;88.00
28247;DHT22;73163;53.178;22.058;2023-11-21T15:24:13;-0.10;86.70
28247;DHT22;73163;53.178;22.058;2023-11-21T15:26:48;-0.10;86.80
28247;DHT22;73163;53.178;22.058;2023-11-21T15:29:19;-0.20;86.50
28247;DHT22;73163;53.178;22.058;2023-11-21T15:31:48;-0.10;86.70
28247;DHT22;73163;53.178;22.058;2023-11-21T15:34:17;-0.20;87.40
28247;DHT22;73163;53.178;22.058;2023-11-21T15:36:45;-0.10;87.80
28247;DHT22;73163;53.178;22.058;2023-11-21T15:39:14;-0.10;86.30
28247;DHT22;73163;53.178;22.058;2023-11-21T15:41:41;-0.20;86.20
28247;DHT22;73163;53.178;22.058;2023-11-21T15:44:12;-0.20;86.80
28247;DHT22;73163;53.178;22.058;2023-11-21T15:46:41;-0.20;85.40
28247;DHT22;73163;53.178;22.058;2023-11-21T15:49:11;-0.20;86.10
28247;DHT22;73163;53.178;22.058;2023-11-21T15:51:45;-0.20;86.50
28247;DHT22;73163;53.178;22.058;2023-11-21T15:54:22;-0.20;86.10